Aviation Digital Data Service (ADDS)

Output produced by METARs form (2319 UTC 18 October 2019)
found at http://www.aviationweather.gov/metar/data/
 
METAR text: EVRA 182250Z 18005KT CAVOK 12/11 Q1010 R18/190095 NOSIG
Conditions at: EVRA (RIGA AIRPORT , LV) observed 2250 UTC 18 October 2019
Temperature: 12.0°C (54°F)
Dewpoint: 11.0°C (52°F) [RH = 94%]
Pressure (altimeter): 29.82 inches Hg (1010.0 mb)
Winds: from the S (180 degrees) at 6 MPH (5 knots; 2.6 m/s)
Visibility: 6 or more miles (10+ km)
Ceiling: ceiling and visibility are OK
Clouds: unknown
Weather: no significant weather observed at this time

METAR text: EVRA 182220Z 16006KT CAVOK 12/11 Q1010 R18/190095 NOSIG
Conditions at: EVRA (RIGA AIRPORT , LV) observed 2220 UTC 18 October 2019
Temperature: 12.0°C (54°F)
Dewpoint: 11.0°C (52°F) [RH = 94%]
Pressure (altimeter): 29.82 inches Hg (1010.0 mb)
Winds: from the SSE (160 degrees) at 7 MPH (6 knots; 3.1 m/s)
Visibility: 6 or more miles (10+ km)
Ceiling: ceiling and visibility are OK
Clouds: unknown
Weather: no significant weather observed at this time

METAR text: EVRA 182150Z 16005KT 9999 -RA NSC 13/11 Q1011 R18/190095 NOSIG
Conditions at: EVRA (RIGA AIRPORT , LV) observed 2150 UTC 18 October 2019
Temperature: 13.0°C (55°F)
Dewpoint: 11.0°C (52°F) [RH = 88%]
Pressure (altimeter): 29.85 inches Hg (1011.0 mb)
Winds: from the SSE (160 degrees) at 6 MPH (5 knots; 2.6 m/s)
Visibility: 6 or more miles (10+ km)
Ceiling: at least 12,000 feet AGL
Clouds: sky clear below 12,000 feet AGL
Weather: -RA  (light rain)

METAR text: EVRA 182120Z 16005KT CAVOK 13/11 Q1011 R18/190095 NOSIG
Conditions at: EVRA (RIGA AIRPORT , LV) observed 2120 UTC 18 October 2019
Temperature: 13.0°C (55°F)
Dewpoint: 11.0°C (52°F) [RH = 88%]
Pressure (altimeter): 29.85 inches Hg (1011.0 mb)
Winds: from the SSE (160 degrees) at 6 MPH (5 knots; 2.6 m/s)
Visibility: 6 or more miles (10+ km)
Ceiling: ceiling and visibility are OK
Clouds: unknown
Weather: no significant weather observed at this time

METAR text: EVRA 182050Z 16004KT CAVOK 13/11 Q1011 R18/190095 NOSIG
Conditions at: EVRA (RIGA AIRPORT , LV) observed 2050 UTC 18 October 2019
Temperature: 13.0°C (55°F)
Dewpoint: 11.0°C (52°F) [RH = 88%]
Pressure (altimeter): 29.85 inches Hg (1011.0 mb)
Winds: from the SSE (160 degrees) at 5 MPH (4 knots; 2.1 m/s)
Visibility: 6 or more miles (10+ km)
Ceiling: ceiling and visibility are OK
Clouds: unknown
Weather: no significant weather observed at this time

METAR text: EVRA 182020Z 15004KT CAVOK 13/11 Q1011 R18/190095 NOSIG
Conditions at: EVRA (RIGA AIRPORT , LV) observed 2020 UTC 18 October 2019
Temperature: 13.0°C (55°F)
Dewpoint: 11.0°C (52°F) [RH = 88%]
Pressure (altimeter): 29.85 inches Hg (1011.0 mb)
Winds: from the SSE (150 degrees) at 5 MPH (4 knots; 2.1 m/s)
Visibility: 6 or more miles (10+ km)
Ceiling: ceiling and visibility are OK
Clouds: unknown
Weather: no significant weather observed at this time

METAR text: EVRA 181950Z 15003KT CAVOK 12/11 Q1011 R18/190095 NOSIG
Conditions at: EVRA (RIGA AIRPORT , LV) observed 1950 UTC 18 October 2019
Temperature: 12.0°C (54°F)
Dewpoint: 11.0°C (52°F) [RH = 94%]
Pressure (altimeter): 29.85 inches Hg (1011.0 mb)
Winds: from the SSE (150 degrees) at 3 MPH (3 knots; 1.5 m/s)
Visibility: 6 or more miles (10+ km)
Ceiling: ceiling and visibility are OK
Clouds: unknown
Weather: no significant weather observed at this time

METAR text: EVRA 181920Z 18004KT CAVOK 13/11 Q1012 R18/190095 NOSIG
Conditions at: EVRA (RIGA AIRPORT , LV) observed 1920 UTC 18 October 2019
Temperature: 13.0°C (55°F)
Dewpoint: 11.0°C (52°F) [RH = 88%]
Pressure (altimeter): 29.88 inches Hg (1012.0 mb)
Winds: from the S (180 degrees) at 5 MPH (4 knots; 2.1 m/s)
Visibility: 6 or more miles (10+ km)
Ceiling: ceiling and visibility are OK
Clouds: unknown
Weather: no significant weather observed at this time

METAR text: EVRA 181850Z 18004KT CAVOK 13/11 Q1012 R18/190095 NOSIG
Conditions at: EVRA (RIGA AIRPORT , LV) observed 1850 UTC 18 October 2019
Temperature: 13.0°C (55°F)
Dewpoint: 11.0°C (52°F) [RH = 88%]
Pressure (altimeter): 29.88 inches Hg (1012.0 mb)
Winds: from the S (180 degrees) at 5 MPH (4 knots; 2.1 m/s)
Visibility: 6 or more miles (10+ km)
Ceiling: ceiling and visibility are OK
Clouds: unknown
Weather: no significant weather observed at this time

METAR text: EVRA 181820Z 15005KT CAVOK 13/12 Q1012 R18/190095 NOSIG
Conditions at: EVRA (RIGA AIRPORT , LV) observed 1820 UTC 18 October 2019
Temperature: 13.0°C (55°F)
Dewpoint: 12.0°C (54°F) [RH = 94%]
Pressure (altimeter): 29.88 inches Hg (1012.0 mb)
Winds: from the SSE (150 degrees) at 6 MPH (5 knots; 2.6 m/s)
Visibility: 6 or more miles (10+ km)
Ceiling: ceiling and visibility are OK
Clouds: unknown
Weather: no significant weather observed at this time

METAR text: EVRA 181750Z 15004KT 100V170 CAVOK 13/12 Q1012 R18/190095 NOSIG
Conditions at: EVRA (RIGA AIRPORT , LV) observed 1750 UTC 18 October 2019
Temperature: 13.0°C (55°F)
Dewpoint: 12.0°C (54°F) [RH = 94%]
Pressure (altimeter): 29.88 inches Hg (1012.0 mb)
Winds: from the SSE (150 degrees) at 5 MPH (4 knots; 2.1 m/s)
Visibility: 6 or more miles (10+ km)
Ceiling: ceiling and visibility are OK
Clouds: unknown
Weather: no significant weather observed at this time

METAR text: EVRA 181720Z 15004KT CAVOK 13/12 Q1012 R18/190095 NOSIG
Conditions at: EVRA (RIGA AIRPORT , LV) observed 1720 UTC 18 October 2019
Temperature: 13.0°C (55°F)
Dewpoint: 12.0°C (54°F) [RH = 94%]
Pressure (altimeter): 29.88 inches Hg (1012.0 mb)
Winds: from the SSE (150 degrees) at 5 MPH (4 knots; 2.1 m/s)
Visibility: 6 or more miles (10+ km)
Ceiling: ceiling and visibility are OK
Clouds: unknown
Weather: no significant weather observed at this time

METAR text: EVRA 181650Z 17004KT CAVOK 13/12 Q1012 R18/190095 NOSIG
Conditions at: EVRA (RIGA AIRPORT , LV) observed 1650 UTC 18 October 2019
Temperature: 13.0°C (55°F)
Dewpoint: 12.0°C (54°F) [RH = 94%]
Pressure (altimeter): 29.88 inches Hg (1012.0 mb)
Winds: from the S (170 degrees) at 5 MPH (4 knots; 2.1 m/s)
Visibility: 6 or more miles (10+ km)
Ceiling: ceiling and visibility are OK
Clouds: unknown
Weather: no significant weather observed at this time

METAR text: EVRA 181620Z 15003KT 130V190 CAVOK 13/12 Q1012 R18/190095 NOSIG
Conditions at: EVRA (RIGA AIRPORT , LV) observed 1620 UTC 18 October 2019
Temperature: 13.0°C (55°F)
Dewpoint: 12.0°C (54°F) [RH = 94%]
Pressure (altimeter): 29.88 inches Hg (1012.0 mb)
Winds: from the SSE (150 degrees) at 3 MPH (3 knots; 1.5 m/s)
Visibility: 6 or more miles (10+ km)
Ceiling: ceiling and visibility are OK
Clouds: unknown
Weather: no significant weather observed at this time

METAR text: EVRA 181550Z 16004KT 9999 FEW015 13/12 Q1012 R18/190095 NOSIG
Conditions at: EVRA (RIGA AIRPORT , LV) observed 1550 UTC 18 October 2019
Temperature: 13.0°C (55°F)
Dewpoint: 12.0°C (54°F) [RH = 94%]
Pressure (altimeter): 29.88 inches Hg (1012.0 mb)
Winds: from the SSE (160 degrees) at 5 MPH (4 knots; 2.1 m/s)
Visibility: 6 or more miles (10+ km)
Ceiling: at least 12,000 feet AGL
Clouds: few clouds at 1500 feet AGL
Weather: no significant weather observed at this time

METAR text: EVRA 181520Z 17006KT 9999 SCT014 SCT040 13/12 Q1013 R18/190095 NOSIG
Conditions at: EVRA (RIGA AIRPORT , LV) observed 1520 UTC 18 October 2019
Temperature: 13.0°C (55°F)
Dewpoint: 12.0°C (54°F) [RH = 94%]
Pressure (altimeter): 29.91 inches Hg (1013.0 mb)
Winds: from the S (170 degrees) at 7 MPH (6 knots; 3.1 m/s)
Visibility: 6 or more miles (10+ km)
Ceiling: at least 12,000 feet AGL
Clouds: scattered clouds at 1400 feet AGL
scattered clouds at 4000 feet AGL
Weather: no significant weather observed at this time

METAR text: EVRA 181450Z 16005KT 9999 SCT009 BKN019 14/13 Q1012 R18/190095 NOSIG
Conditions at: EVRA (RIGA AIRPORT , LV) observed 1450 UTC 18 October 2019
Temperature: 14.0°C (57°F)
Dewpoint: 13.0°C (55°F) [RH = 94%]
Pressure (altimeter): 29.88 inches Hg (1012.0 mb)
Winds: from the SSE (160 degrees) at 6 MPH (5 knots; 2.6 m/s)
Visibility: 6 or more miles (10+ km)
Ceiling: 1900 feet AGL
Clouds: scattered clouds at 900 feet AGL
broken clouds at 1900 feet AGL
Weather: no significant weather observed at this time

METAR text: EVRA 181420Z 18007KT 9999 -RA SCT007 BKN011 OVC043 14/13 Q1013 R18/190095 NOSIG
Conditions at: EVRA (RIGA AIRPORT , LV) observed 1420 UTC 18 October 2019
Temperature: 14.0°C (57°F)
Dewpoint: 13.0°C (55°F) [RH = 94%]
Pressure (altimeter): 29.91 inches Hg (1013.0 mb)
Winds: from the S (180 degrees) at 8 MPH (7 knots; 3.6 m/s)
Visibility: 6 or more miles (10+ km)
Ceiling: 1100 feet AGL
Clouds: scattered clouds at 700 feet AGL
broken clouds at 1100 feet AGL
overcast cloud deck at 4300 feet AGL
Weather: -RA  (light rain)

METAR text: EVRA 181350Z 17008KT 9999 SCT009 BKN041 14/13 Q1013 R18/190095 NOSIG
Conditions at: EVRA (RIGA AIRPORT , LV) observed 1350 UTC 18 October 2019
Temperature: 14.0°C (57°F)
Dewpoint: 13.0°C (55°F) [RH = 94%]
Pressure (altimeter): 29.91 inches Hg (1013.0 mb)
Winds: from the S (170 degrees) at 9 MPH (8 knots; 4.1 m/s)
Visibility: 6 or more miles (10+ km)
Ceiling: 4100 feet AGL
Clouds: scattered clouds at 900 feet AGL
broken clouds at 4100 feet AGL
Weather: no significant weather observed at this time

METAR text: EVRA 181320Z 18006KT 9999 BKN010 14/13 Q1013 R18/190095 NOSIG
Conditions at: EVRA (RIGA AIRPORT , LV) observed 1320 UTC 18 October 2019
Temperature: 14.0°C (57°F)
Dewpoint: 13.0°C (55°F) [RH = 94%]
Pressure (altimeter): 29.91 inches Hg (1013.0 mb)
Winds: from the S (180 degrees) at 7 MPH (6 knots; 3.1 m/s)
Visibility: 6 or more miles (10+ km)
Ceiling: 1000 feet AGL
Clouds: broken clouds at 1000 feet AGL
Weather: no significant weather observed at this time

METAR text: EVRA 181250Z 17008KT 9999 OVC011 14/13 Q1013 R18/190095 NOSIG
Conditions at: EVRA (RIGA AIRPORT , LV) observed 1250 UTC 18 October 2019
Temperature: 14.0°C (57°F)
Dewpoint: 13.0°C (55°F) [RH = 94%]
Pressure (altimeter): 29.91 inches Hg (1013.0 mb)
Winds: from the S (170 degrees) at 9 MPH (8 knots; 4.1 m/s)
Visibility: 6 or more miles (10+ km)
Ceiling: 1100 feet AGL
Clouds: overcast cloud deck at 1100 feet AGL
Weather: no significant weather observed at this time

METAR text: EVRA 181220Z 18006KT 9999 -RA OVC012 15/13 Q1013 R18/190095 NOSIG
Conditions at: EVRA (RIGA AIRPORT , LV) observed 1220 UTC 18 October 2019
Temperature: 15.0°C (59°F)
Dewpoint: 13.0°C (55°F) [RH = 88%]
Pressure (altimeter): 29.91 inches Hg (1013.0 mb)
Winds: from the S (180 degrees) at 7 MPH (6 knots; 3.1 m/s)
Visibility: 6 or more miles (10+ km)
Ceiling: 1200 feet AGL
Clouds: overcast cloud deck at 1200 feet AGL
Weather: -RA  (light rain)

METAR text: EVRA 181150Z 17006KT 9999 OVC012 15/13 Q1013 R18/190095 NOSIG
Conditions at: EVRA (RIGA AIRPORT , LV) observed 1150 UTC 18 October 2019
Temperature: 15.0°C (59°F)
Dewpoint: 13.0°C (55°F) [RH = 88%]
Pressure (altimeter): 29.91 inches Hg (1013.0 mb)
Winds: from the S (170 degrees) at 7 MPH (6 knots; 3.1 m/s)
Visibility: 6 or more miles (10+ km)
Ceiling: 1200 feet AGL
Clouds: overcast cloud deck at 1200 feet AGL
Weather: no significant weather observed at this time

METAR text: EVRA 181120Z 18006KT 9999 BKN012 OVC032 15/13 Q1013 R18/190095 NOSIG
Conditions at: EVRA (RIGA AIRPORT , LV) observed 1120 UTC 18 October 2019
Temperature: 15.0°C (59°F)
Dewpoint: 13.0°C (55°F) [RH = 88%]
Pressure (altimeter): 29.91 inches Hg (1013.0 mb)
Winds: from the S (180 degrees) at 7 MPH (6 knots; 3.1 m/s)
Visibility: 6 or more miles (10+ km)
Ceiling: 1200 feet AGL
Clouds: broken clouds at 1200 feet AGL
overcast cloud deck at 3200 feet AGL
Weather: no significant weather observed at this time

METAR text: EVRA 181050Z 20004KT 170V230 9999 OVC011 15/12 Q1013 R18/190095 NOSIG
Conditions at: EVRA (RIGA AIRPORT , LV) observed 1050 UTC 18 October 2019
Temperature: 15.0°C (59°F)
Dewpoint: 12.0°C (54°F) [RH = 82%]
Pressure (altimeter): 29.91 inches Hg (1013.0 mb)
Winds: from the SSW (200 degrees) at 5 MPH (4 knots; 2.1 m/s)
Visibility: 6 or more miles (10+ km)
Ceiling: 1100 feet AGL
Clouds: overcast cloud deck at 1100 feet AGL
Weather: no significant weather observed at this time

METAR text: EVRA 181020Z 18008KT 9999 BKN009 BKN031 15/12 Q1014 R18/190095 NOSIG
Conditions at: EVRA (RIGA AIRPORT , LV) observed 1020 UTC 18 October 2019
Temperature: 15.0°C (59°F)
Dewpoint: 12.0°C (54°F) [RH = 82%]
Pressure (altimeter): 29.94 inches Hg (1014.0 mb)
Winds: from the S (180 degrees) at 9 MPH (8 knots; 4.1 m/s)
Visibility: 6 or more miles (10+ km)
Ceiling: 900 feet AGL
Clouds: broken clouds at 900 feet AGL
broken clouds at 3100 feet AGL
Weather: no significant weather observed at this time

METAR text: EVRA 180950Z 18008KT 9999 FEW008 BKN032 14/13 Q1014 R18/190095 TEMPO BKN007 OVC030
Conditions at: EVRA (RIGA AIRPORT , LV) observed 0950 UTC 18 October 2019
Temperature: 14.0°C (57°F)
Dewpoint: 13.0°C (55°F) [RH = 94%]
Pressure (altimeter): 29.94 inches Hg (1014.0 mb)
Winds: from the S (180 degrees) at 9 MPH (8 knots; 4.1 m/s)
Visibility: 6 or more miles (10+ km)
Ceiling: 3200 feet AGL
Clouds: few clouds at 800 feet AGL
broken clouds at 3200 feet AGL
Weather: no significant weather observed at this time

METAR text: EVRA 180920Z 18008KT 9999 SCT007 BKN037 OVC046 14/12 Q1014 R18/190095 NOSIG
Conditions at: EVRA (RIGA AIRPORT , LV) observed 0920 UTC 18 October 2019
Temperature: 14.0°C (57°F)
Dewpoint: 12.0°C (54°F) [RH = 88%]
Pressure (altimeter): 29.94 inches Hg (1014.0 mb)
Winds: from the S (180 degrees) at 9 MPH (8 knots; 4.1 m/s)
Visibility: 6 or more miles (10+ km)
Ceiling: 3700 feet AGL
Clouds: scattered clouds at 700 feet AGL
broken clouds at 3700 feet AGL
overcast cloud deck at 4600 feet AGL
Weather: no significant weather observed at this time

METAR text: EVRA 180850Z 18007KT 9999 BKN006 OVC044 13/12 Q1014 R18/190095 NOSIG
Conditions at: EVRA (RIGA AIRPORT , LV) observed 0850 UTC 18 October 2019
Temperature: 13.0°C (55°F)
Dewpoint: 12.0°C (54°F) [RH = 94%]
Pressure (altimeter): 29.94 inches Hg (1014.0 mb)
Winds: from the S (180 degrees) at 8 MPH (7 knots; 3.6 m/s)
Visibility: 6 or more miles (10+ km)
Ceiling: 600 feet AGL
Clouds: broken clouds at 600 feet AGL
overcast cloud deck at 4400 feet AGL
Weather: no significant weather observed at this time

METAR text: EVRA 180820Z 18006KT 9999 OVC005 13/12 Q1014 R18/190095 NOSIG
Conditions at: EVRA (RIGA AIRPORT , LV) observed 0820 UTC 18 October 2019
Temperature: 13.0°C (55°F)
Dewpoint: 12.0°C (54°F) [RH = 94%]
Pressure (altimeter): 29.94 inches Hg (1014.0 mb)
Winds: from the S (180 degrees) at 7 MPH (6 knots; 3.1 m/s)
Visibility: 6 or more miles (10+ km)
Ceiling: 500 feet AGL
Clouds: overcast cloud deck at 500 feet AGL
Weather: no significant weather observed at this time

METAR text: EVRA 180750Z 19008KT 9999 OVC004 12/12 Q1014 R18/190095 NOSIG
Conditions at: EVRA (RIGA AIRPORT , LV) observed 0750 UTC 18 October 2019
Temperature: 12.0°C (54°F)
Dewpoint: 12.0°C (54°F) [RH = 100%]
Pressure (altimeter): 29.94 inches Hg (1014.0 mb)
Winds: from the S (190 degrees) at 9 MPH (8 knots; 4.1 m/s)
Visibility: 6 or more miles (10+ km)
Ceiling: 400 feet AGL
Clouds: overcast cloud deck at 400 feet AGL
Weather: no significant weather observed at this time

METAR text: EVRA 180720Z 19007KT 9000 SCT004 SCT021 OVC035 12/11 Q1014 R18/190095 NOSIG
Conditions at: EVRA (RIGA AIRPORT , LV) observed 0720 UTC 18 October 2019
Temperature: 12.0°C (54°F)
Dewpoint: 11.0°C (52°F) [RH = 94%]
Pressure (altimeter): 29.94 inches Hg (1014.0 mb)
Winds: from the S (190 degrees) at 8 MPH (7 knots; 3.6 m/s)
Visibility: 6 miles ( 9 km)
Ceiling: 3500 feet AGL
Clouds: scattered clouds at 400 feet AGL
scattered clouds at 2100 feet AGL
overcast cloud deck at 3500 feet AGL
Weather: no significant weather observed at this time

METAR text: EVRA 180650Z 18007KT 9000 FEW003 BKN022 OVC037 12/11 Q1014 R18/290195 NOSIG
Conditions at: EVRA (RIGA AIRPORT , LV) observed 0650 UTC 18 October 2019
Temperature: 12.0°C (54°F)
Dewpoint: 11.0°C (52°F) [RH = 94%]
Pressure (altimeter): 29.94 inches Hg (1014.0 mb)
Winds: from the S (180 degrees) at 8 MPH (7 knots; 3.6 m/s)
Visibility: 6 miles ( 9 km)
Ceiling: 2200 feet AGL
Clouds: few clouds at 300 feet AGL
broken clouds at 2200 feet AGL
overcast cloud deck at 3700 feet AGL
Weather: no significant weather observed at this time

METAR text: EVRA 180620Z 19007KT 5000 -DZ BR BKN004 OVC012 11/11 Q1013 R18/290195 NOSIG
Conditions at: EVRA (RIGA AIRPORT , LV) observed 0620 UTC 18 October 2019
Temperature: 11.0°C (52°F)
Dewpoint: 11.0°C (52°F) [RH = 100%]
Pressure (altimeter): 29.91 inches Hg (1013.0 mb)
Winds: from the S (190 degrees) at 8 MPH (7 knots; 3.6 m/s)
Visibility: 3 miles ( 5 km)
Ceiling: 400 feet AGL
Clouds: broken clouds at 400 feet AGL
overcast cloud deck at 1200 feet AGL
Weather: -DZ BR  (light drizzle, mist)

METAR text: EVRA 180550Z 19006KT 4000 -DZ BR BKN005 OVC011 11/11 Q1013 R18/290195 NOSIG
Conditions at: EVRA (RIGA AIRPORT , LV) observed 0550 UTC 18 October 2019
Temperature: 11.0°C (52°F)
Dewpoint: 11.0°C (52°F) [RH = 100%]
Pressure (altimeter): 29.91 inches Hg (1013.0 mb)
Winds: from the S (190 degrees) at 7 MPH (6 knots; 3.1 m/s)
Visibility: 2.49 miles (4.01 km)
Ceiling: 500 feet AGL
Clouds: broken clouds at 500 feet AGL
overcast cloud deck at 1100 feet AGL
Weather: -DZ BR  (light drizzle, mist)

METAR text: EVRA 180520Z 19006KT 7000 -DZ BKN010 OVC030 11/11 Q1013 R18/290195 NOSIG
Conditions at: EVRA (RIGA AIRPORT , LV) observed 0520 UTC 18 October 2019
Temperature: 11.0°C (52°F)
Dewpoint: 11.0°C (52°F) [RH = 100%]
Pressure (altimeter): 29.91 inches Hg (1013.0 mb)
Winds: from the S (190 degrees) at 7 MPH (6 knots; 3.1 m/s)
Visibility: 4 miles ( 7 km)
Ceiling: 1000 feet AGL
Clouds: broken clouds at 1000 feet AGL
overcast cloud deck at 3000 feet AGL
Weather: -DZ  (light drizzle)

METAR text: EVRA 180450Z 19007KT 9999 BKN010 OVC039 11/11 Q1013 R18/290195 NOSIG
Conditions at: EVRA (RIGA AIRPORT , LV) observed 0450 UTC 18 October 2019
Temperature: 11.0°C (52°F)
Dewpoint: 11.0°C (52°F) [RH = 100%]
Pressure (altimeter): 29.91 inches Hg (1013.0 mb)
Winds: from the S (190 degrees) at 8 MPH (7 knots; 3.6 m/s)
Visibility: 6 or more miles (10+ km)
Ceiling: 1000 feet AGL
Clouds: broken clouds at 1000 feet AGL
overcast cloud deck at 3900 feet AGL
Weather: no significant weather observed at this time

METAR text: EVRA 180420Z 18007KT 9999 SCT011 BKN034 11/11 Q1013 R18/290195 NOSIG
Conditions at: EVRA (RIGA AIRPORT , LV) observed 0420 UTC 18 October 2019
Temperature: 11.0°C (52°F)
Dewpoint: 11.0°C (52°F) [RH = 100%]
Pressure (altimeter): 29.91 inches Hg (1013.0 mb)
Winds: from the S (180 degrees) at 8 MPH (7 knots; 3.6 m/s)
Visibility: 6 or more miles (10+ km)
Ceiling: 3400 feet AGL
Clouds: scattered clouds at 1100 feet AGL
broken clouds at 3400 feet AGL
Weather: no significant weather observed at this time

METAR text: EVRA 180350Z 18007KT 9999 -RA SCT011 BKN026 11/11 Q1013 R18/290195 NOSIG
Conditions at: EVRA (RIGA AIRPORT , LV) observed 0350 UTC 18 October 2019
Temperature: 11.0°C (52°F)
Dewpoint: 11.0°C (52°F) [RH = 100%]
Pressure (altimeter): 29.91 inches Hg (1013.0 mb)
Winds: from the S (180 degrees) at 8 MPH (7 knots; 3.6 m/s)
Visibility: 6 or more miles (10+ km)
Ceiling: 2600 feet AGL
Clouds: scattered clouds at 1100 feet AGL
broken clouds at 2600 feet AGL
Weather: -RA  (light rain)

METAR text: EVRA 180320Z 17007KT 9999 -RA SCT011 OVC028 11/11 Q1013 R18/290195 NOSIG
Conditions at: EVRA (RIGA AIRPORT , LV) observed 0320 UTC 18 October 2019
Temperature: 11.0°C (52°F)
Dewpoint: 11.0°C (52°F) [RH = 100%]
Pressure (altimeter): 29.91 inches Hg (1013.0 mb)
Winds: from the S (170 degrees) at 8 MPH (7 knots; 3.6 m/s)
Visibility: 6 or more miles (10+ km)
Ceiling: 2800 feet AGL
Clouds: scattered clouds at 1100 feet AGL
overcast cloud deck at 2800 feet AGL
Weather: -RA  (light rain)

METAR text: EVRA 180250Z 18005KT 9999 BKN019 11/11 Q1013 R18/290195 NOSIG
Conditions at: EVRA (RIGA AIRPORT , LV) observed 0250 UTC 18 October 2019
Temperature: 11.0°C (52°F)
Dewpoint: 11.0°C (52°F) [RH = 100%]
Pressure (altimeter): 29.91 inches Hg (1013.0 mb)
Winds: from the S (180 degrees) at 6 MPH (5 knots; 2.6 m/s)
Visibility: 6 or more miles (10+ km)
Ceiling: 1900 feet AGL
Clouds: broken clouds at 1900 feet AGL
Weather: no significant weather observed at this time

METAR text: EVRA 180220Z 19004KT 9999 BKN019 11/11 Q1013 R18/290195 NOSIG
Conditions at: EVRA (RIGA AIRPORT , LV) observed 0220 UTC 18 October 2019
Temperature: 11.0°C (52°F)
Dewpoint: 11.0°C (52°F) [RH = 100%]
Pressure (altimeter): 29.91 inches Hg (1013.0 mb)
Winds: from the S (190 degrees) at 5 MPH (4 knots; 2.1 m/s)
Visibility: 6 or more miles (10+ km)
Ceiling: 1900 feet AGL
Clouds: broken clouds at 1900 feet AGL
Weather: no significant weather observed at this time

METAR text: EVRA 180150Z 17004KT 9999 BKN019 11/10 Q1013 R18/290195 NOSIG
Conditions at: EVRA (RIGA AIRPORT , LV) observed 0150 UTC 18 October 2019
Temperature: 11.0°C (52°F)
Dewpoint: 10.0°C (50°F) [RH = 94%]
Pressure (altimeter): 29.91 inches Hg (1013.0 mb)
Winds: from the S (170 degrees) at 5 MPH (4 knots; 2.1 m/s)
Visibility: 6 or more miles (10+ km)
Ceiling: 1900 feet AGL
Clouds: broken clouds at 1900 feet AGL
Weather: no significant weather observed at this time

METAR text: EVRA 180120Z 19004KT 9999 BKN018 11/10 Q1013 R18/290195 NOSIG
Conditions at: EVRA (RIGA AIRPORT , LV) observed 0120 UTC 18 October 2019
Temperature: 11.0°C (52°F)
Dewpoint: 10.0°C (50°F) [RH = 94%]
Pressure (altimeter): 29.91 inches Hg (1013.0 mb)
Winds: from the S (190 degrees) at 5 MPH (4 knots; 2.1 m/s)
Visibility: 6 or more miles (10+ km)
Ceiling: 1800 feet AGL
Clouds: broken clouds at 1800 feet AGL
Weather: no significant weather observed at this time

METAR text: EVRA 180050Z 16004KT 9999 SCT020 11/10 Q1013 R18/290195 NOSIG
Conditions at: EVRA (RIGA AIRPORT , LV) observed 0050 UTC 18 October 2019
Temperature: 11.0°C (52°F)
Dewpoint: 10.0°C (50°F) [RH = 94%]
Pressure (altimeter): 29.91 inches Hg (1013.0 mb)
Winds: from the SSE (160 degrees) at 5 MPH (4 knots; 2.1 m/s)
Visibility: 6 or more miles (10+ km)
Ceiling: at least 12,000 feet AGL
Clouds: scattered clouds at 2000 feet AGL
Weather: no significant weather observed at this time

METAR text: EVRA 180020Z 16002KT 9999 SCT020 10/10 Q1014 R18/290195 NOSIG
Conditions at: EVRA (RIGA AIRPORT , LV) observed 0020 UTC 18 October 2019
Temperature: 10.0°C (50°F)
Dewpoint: 10.0°C (50°F) [RH = 100%]
Pressure (altimeter): 29.94 inches Hg (1014.0 mb)
Winds: from the SSE (160 degrees) at 2 MPH (2 knots; 1.0 m/s)
Visibility: 6 or more miles (10+ km)
Ceiling: at least 12,000 feet AGL
Clouds: scattered clouds at 2000 feet AGL
Weather: no significant weather observed at this time

METAR text: EVRA 172350Z VRB02KT 9999 SCT006 BKN023 11/10 Q1014 R18/290195 NOSIG
Conditions at: EVRA (RIGA AIRPORT , LV) observed 2350 UTC 17 October 2019
Temperature: 11.0°C (52°F)
Dewpoint: 10.0°C (50°F) [RH = 94%]
Pressure (altimeter): 29.94 inches Hg (1014.0 mb)
Winds: variable direction winds at 2 MPH (2 knots; 1.0 m/s)
Visibility: 6 or more miles (10+ km)
Ceiling: 2300 feet AGL
Clouds: scattered clouds at 600 feet AGL
broken clouds at 2300 feet AGL
Weather: no significant weather observed at this time

METAR text: EVRA 172320Z 20004KT 9999 SCT006 BKN026 11/10 Q1014 R18/290195 NOSIG
Conditions at: EVRA (RIGA AIRPORT , LV) observed 2320 UTC 17 October 2019
Temperature: 11.0°C (52°F)
Dewpoint: 10.0°C (50°F) [RH = 94%]
Pressure (altimeter): 29.94 inches Hg (1014.0 mb)
Winds: from the SSW (200 degrees) at 5 MPH (4 knots; 2.1 m/s)
Visibility: 6 or more miles (10+ km)
Ceiling: 2600 feet AGL
Clouds: scattered clouds at 600 feet AGL
broken clouds at 2600 feet AGL
Weather: no significant weather observed at this time

METAR text: EVRA 172250Z 19003KT 9999 SCT006 11/10 Q1014 R18/290195 NOSIG
Conditions at: EVRA (RIGA AIRPORT , LV) observed 2250 UTC 17 October 2019
Temperature: 11.0°C (52°F)
Dewpoint: 10.0°C (50°F) [RH = 94%]
Pressure (altimeter): 29.94 inches Hg (1014.0 mb)
Winds: from the S (190 degrees) at 3 MPH (3 knots; 1.5 m/s)
Visibility: 6 or more miles (10+ km)
Ceiling: at least 12,000 feet AGL
Clouds: scattered clouds at 600 feet AGL
Weather: no significant weather observed at this time

METAR text: EVRA 172220Z 21003KT 190V250 9999 SCT007 OVC011 11/10 Q1014 R18/290195 NOSIG
Conditions at: EVRA (RIGA AIRPORT , LV) observed 2220 UTC 17 October 2019
Temperature: 11.0°C (52°F)
Dewpoint: 10.0°C (50°F) [RH = 94%]
Pressure (altimeter): 29.94 inches Hg (1014.0 mb)
Winds: from the SSW (210 degrees) at 3 MPH (3 knots; 1.5 m/s)
Visibility: 6 or more miles (10+ km)
Ceiling: 1100 feet AGL
Clouds: scattered clouds at 700 feet AGL
overcast cloud deck at 1100 feet AGL
Weather: no significant weather observed at this time

METAR text: EVRA 172150Z 21004KT 9999 OVC009 11/10 Q1014 R18/290195 NOSIG
Conditions at: EVRA (RIGA AIRPORT , LV) observed 2150 UTC 17 October 2019
Temperature: 11.0°C (52°F)
Dewpoint: 10.0°C (50°F) [RH = 94%]
Pressure (altimeter): 29.94 inches Hg (1014.0 mb)
Winds: from the SSW (210 degrees) at 5 MPH (4 knots; 2.1 m/s)
Visibility: 6 or more miles (10+ km)
Ceiling: 900 feet AGL
Clouds: overcast cloud deck at 900 feet AGL
Weather: no significant weather observed at this time

METAR text: EVRA 172120Z 22004KT 190V250 9999 OVC009 11/10 Q1014 R18/290195 NOSIG
Conditions at: EVRA (RIGA AIRPORT , LV) observed 2120 UTC 17 October 2019
Temperature: 11.0°C (52°F)
Dewpoint: 10.0°C (50°F) [RH = 94%]
Pressure (altimeter): 29.94 inches Hg (1014.0 mb)
Winds: from the SW (220 degrees) at 5 MPH (4 knots; 2.1 m/s)
Visibility: 6 or more miles (10+ km)
Ceiling: 900 feet AGL
Clouds: overcast cloud deck at 900 feet AGL
Weather: no significant weather observed at this time

METAR text: EVRA 172050Z 22004KT 9999 OVC011 11/10 Q1013 R18/290195 NOSIG
Conditions at: EVRA (RIGA AIRPORT , LV) observed 2050 UTC 17 October 2019
Temperature: 11.0°C (52°F)
Dewpoint: 10.0°C (50°F) [RH = 94%]
Pressure (altimeter): 29.91 inches Hg (1013.0 mb)
Winds: from the SW (220 degrees) at 5 MPH (4 knots; 2.1 m/s)
Visibility: 6 or more miles (10+ km)
Ceiling: 1100 feet AGL
Clouds: overcast cloud deck at 1100 feet AGL
Weather: no significant weather observed at this time

METAR text: EVRA 172020Z 22004KT 9999 OVC011 11/10 Q1013 R18/290195 NOSIG
Conditions at: EVRA (RIGA AIRPORT , LV) observed 2020 UTC 17 October 2019
Temperature: 11.0°C (52°F)
Dewpoint: 10.0°C (50°F) [RH = 94%]
Pressure (altimeter): 29.91 inches Hg (1013.0 mb)
Winds: from the SW (220 degrees) at 5 MPH (4 knots; 2.1 m/s)
Visibility: 6 or more miles (10+ km)
Ceiling: 1100 feet AGL
Clouds: overcast cloud deck at 1100 feet AGL
Weather: no significant weather observed at this time

METAR text: EVRA 171950Z 21004KT 160V250 9999 OVC012 11/10 Q1013 R18/290195 NOSIG
Conditions at: EVRA (RIGA AIRPORT , LV) observed 1950 UTC 17 October 2019
Temperature: 11.0°C (52°F)
Dewpoint: 10.0°C (50°F) [RH = 94%]
Pressure (altimeter): 29.91 inches Hg (1013.0 mb)
Winds: from the SSW (210 degrees) at 5 MPH (4 knots; 2.1 m/s)
Visibility: 6 or more miles (10+ km)
Ceiling: 1200 feet AGL
Clouds: overcast cloud deck at 1200 feet AGL
Weather: no significant weather observed at this time

METAR text: EVRA 171920Z 23005KT 200V270 9999 SCT013 OVC015 12/10 Q1013 R18/290195 NOSIG
Conditions at: EVRA (RIGA AIRPORT , LV) observed 1920 UTC 17 October 2019
Temperature: 12.0°C (54°F)
Dewpoint: 10.0°C (50°F) [RH = 88%]
Pressure (altimeter): 29.91 inches Hg (1013.0 mb)
Winds: from the SW (230 degrees) at 6 MPH (5 knots; 2.6 m/s)
Visibility: 6 or more miles (10+ km)
Ceiling: 1500 feet AGL
Clouds: scattered clouds at 1300 feet AGL
overcast cloud deck at 1500 feet AGL
Weather: no significant weather observed at this time

METAR text: EVRA 171850Z 23004KT 190V280 9999 BKN012 OVC018 12/10 Q1013 R18/290195 NOSIG
Conditions at: EVRA (RIGA AIRPORT , LV) observed 1850 UTC 17 October 2019
Temperature: 12.0°C (54°F)
Dewpoint: 10.0°C (50°F) [RH = 88%]
Pressure (altimeter): 29.91 inches Hg (1013.0 mb)
Winds: from the SW (230 degrees) at 5 MPH (4 knots; 2.1 m/s)
Visibility: 6 or more miles (10+ km)
Ceiling: 1200 feet AGL
Clouds: broken clouds at 1200 feet AGL
overcast cloud deck at 1800 feet AGL
Weather: no significant weather observed at this time

METAR text: EVRA 171820Z 23006KT 200V270 9999 SCT010 OVC015 12/10 Q1012 R18/290195 NOSIG
Conditions at: EVRA (RIGA AIRPORT , LV) observed 1820 UTC 17 October 2019
Temperature: 12.0°C (54°F)
Dewpoint: 10.0°C (50°F) [RH = 88%]
Pressure (altimeter): 29.88 inches Hg (1012.0 mb)
Winds: from the SW (230 degrees) at 7 MPH (6 knots; 3.1 m/s)
Visibility: 6 or more miles (10+ km)
Ceiling: 1500 feet AGL
Clouds: scattered clouds at 1000 feet AGL
overcast cloud deck at 1500 feet AGL
Weather: no significant weather observed at this time

METAR text: EVRA 171750Z 26005KT 210V310 9999 OVC011 12/10 Q1012 R18/290195 NOSIG
Conditions at: EVRA (RIGA AIRPORT , LV) observed 1750 UTC 17 October 2019
Temperature: 12.0°C (54°F)
Dewpoint: 10.0°C (50°F) [RH = 88%]
Pressure (altimeter): 29.88 inches Hg (1012.0 mb)
Winds: from the W (260 degrees) at 6 MPH (5 knots; 2.6 m/s)
Visibility: 6 or more miles (10+ km)
Ceiling: 1100 feet AGL
Clouds: overcast cloud deck at 1100 feet AGL
Weather: no significant weather observed at this time

METAR text: EVRA 171720Z 24007KT 210V300 9999 OVC011 12/10 Q1012 R18/290195 NOSIG
Conditions at: EVRA (RIGA AIRPORT , LV) observed 1720 UTC 17 October 2019
Temperature: 12.0°C (54°F)
Dewpoint: 10.0°C (50°F) [RH = 88%]
Pressure (altimeter): 29.88 inches Hg (1012.0 mb)
Winds: from the WSW (240 degrees) at 8 MPH (7 knots; 3.6 m/s)
Visibility: 6 or more miles (10+ km)
Ceiling: 1100 feet AGL
Clouds: overcast cloud deck at 1100 feet AGL
Weather: no significant weather observed at this time

METAR text: EVRA 171650Z 24006KT 200V310 9999 BKN012 OVC033 12/10 Q1012 R18/290195 NOSIG
Conditions at: EVRA (RIGA AIRPORT , LV) observed 1650 UTC 17 October 2019
Temperature: 12.0°C (54°F)
Dewpoint: 10.0°C (50°F) [RH = 88%]
Pressure (altimeter): 29.88 inches Hg (1012.0 mb)
Winds: from the WSW (240 degrees) at 7 MPH (6 knots; 3.1 m/s)
Visibility: 6 or more miles (10+ km)
Ceiling: 1200 feet AGL
Clouds: broken clouds at 1200 feet AGL
overcast cloud deck at 3300 feet AGL
Weather: no significant weather observed at this time

METAR text: EVRA 171620Z 24008KT 200V280 9999 BKN011 OVC017 12/10 Q1011 R18/290195 NOSIG
Conditions at: EVRA (RIGA AIRPORT , LV) observed 1620 UTC 17 October 2019
Temperature: 12.0°C (54°F)
Dewpoint: 10.0°C (50°F) [RH = 88%]
Pressure (altimeter): 29.85 inches Hg (1011.0 mb)
Winds: from the WSW (240 degrees) at 9 MPH (8 knots; 4.1 m/s)
Visibility: 6 or more miles (10+ km)
Ceiling: 1100 feet AGL
Clouds: broken clouds at 1100 feet AGL
overcast cloud deck at 1700 feet AGL
Weather: no significant weather observed at this time

METAR text: EVRA 171550Z 25008G18KT 210V290 9999 BKN008 OVC015 12/11 Q1011 R18/290195 NOSIG
Conditions at: EVRA (RIGA AIRPORT , LV) observed 1550 UTC 17 October 2019
Temperature: 12.0°C (54°F)
Dewpoint: 11.0°C (52°F) [RH = 94%]
Pressure (altimeter): 29.85 inches Hg (1011.0 mb)
Winds: from the WSW (250 degrees) at 9 MPH (8 knots; 4.1 m/s)
gusting to 21 MPH (18 knots; 9.3 m/s)
Visibility: 6 or more miles (10+ km)
Ceiling: 800 feet AGL
Clouds: broken clouds at 800 feet AGL
overcast cloud deck at 1500 feet AGL
Weather: no significant weather observed at this time

METAR text: EVRA 171520Z 24008G20KT 170V300 9999 OVC008 12/11 Q1010 R18/290195 NOSIG
Conditions at: EVRA (RIGA AIRPORT , LV) observed 1520 UTC 17 October 2019
Temperature: 12.0°C (54°F)
Dewpoint: 11.0°C (52°F) [RH = 94%]
Pressure (altimeter): 29.82 inches Hg (1010.0 mb)
Winds: from the WSW (240 degrees) at 9 MPH (8 knots; 4.1 m/s)
gusting to 23 MPH (20 knots; 10.3 m/s)
Visibility: 6 or more miles (10+ km)
Ceiling: 800 feet AGL
Clouds: overcast cloud deck at 800 feet AGL
Weather: no significant weather observed at this time

METAR text: EVRA 171450Z 24007G17KT 200V290 9999 BKN008 OVC013 13/11 Q1010 R18/290195 NOSIG
Conditions at: EVRA (RIGA AIRPORT , LV) observed 1450 UTC 17 October 2019
Temperature: 13.0°C (55°F)
Dewpoint: 11.0°C (52°F) [RH = 88%]
Pressure (altimeter): 29.82 inches Hg (1010.0 mb)
Winds: from the WSW (240 degrees) at 8 MPH (7 knots; 3.6 m/s)
gusting to 20 MPH (17 knots; 8.7 m/s)
Visibility: 6 or more miles (10+ km)
Ceiling: 800 feet AGL
Clouds: broken clouds at 800 feet AGL
overcast cloud deck at 1300 feet AGL
Weather: no significant weather observed at this time

METAR text: EVRA 171420Z 24007KT 210V280 9999 SCT007 BKN009 OVC011 13/12 Q1010 R18/290195 NOSIG
Conditions at: EVRA (RIGA AIRPORT , LV) observed 1420 UTC 17 October 2019
Temperature: 13.0°C (55°F)
Dewpoint: 12.0°C (54°F) [RH = 94%]
Pressure (altimeter): 29.82 inches Hg (1010.0 mb)
Winds: from the WSW (240 degrees) at 8 MPH (7 knots; 3.6 m/s)
Visibility: 6 or more miles (10+ km)
Ceiling: 900 feet AGL
Clouds: scattered clouds at 700 feet AGL
broken clouds at 900 feet AGL
overcast cloud deck at 1100 feet AGL
Weather: no significant weather observed at this time

METAR text: EVRA 171350Z 24007KT 180V300 9999 BKN005 OVC013 13/12 Q1009 R18/290195 NOSIG
Conditions at: EVRA (RIGA AIRPORT , LV) observed 1350 UTC 17 October 2019
Temperature: 13.0°C (55°F)
Dewpoint: 12.0°C (54°F) [RH = 94%]
Pressure (altimeter): 29.79 inches Hg (1009.0 mb)
Winds: from the WSW (240 degrees) at 8 MPH (7 knots; 3.6 m/s)
Visibility: 6 or more miles (10+ km)
Ceiling: 500 feet AGL
Clouds: broken clouds at 500 feet AGL
overcast cloud deck at 1300 feet AGL
Weather: no significant weather observed at this time

METAR text: EVRA 171320Z 22006KT 200V270 4300 -DZ BR OVC004 13/13 Q1009 R18/290195 NOSIG
Conditions at: EVRA (RIGA AIRPORT , LV) observed 1320 UTC 17 October 2019
Temperature: 13.0°C (55°F)
Dewpoint: 13.0°C (55°F) [RH = 100%]
Pressure (altimeter): 29.79 inches Hg (1009.0 mb)
Winds: from the SW (220 degrees) at 7 MPH (6 knots; 3.1 m/s)
Visibility: 2.67 miles (4.30 km)
Ceiling: 400 feet AGL
Clouds: overcast cloud deck at 400 feet AGL
Weather: -DZ BR  (light drizzle, mist)

METAR text: EVRA 171250Z 21006KT 4400 -DZ BR BKN005 OVC008 13/12 Q1008 R18/290195 NOSIG
Conditions at: EVRA (RIGA AIRPORT , LV) observed 1250 UTC 17 October 2019
Temperature: 13.0°C (55°F)
Dewpoint: 12.0°C (54°F) [RH = 94%]
Pressure (altimeter): 29.76 inches Hg (1008.0 mb)
Winds: from the SSW (210 degrees) at 7 MPH (6 knots; 3.1 m/s)
Visibility: 2.73 miles (4.39 km)
Ceiling: 500 feet AGL
Clouds: broken clouds at 500 feet AGL
overcast cloud deck at 800 feet AGL
Weather: -DZ BR  (light drizzle, mist)

METAR text: EVRA 171220Z 21004KT 8000 -DZ OVC004 12/12 Q1008 R18/290195 NOSIG
Conditions at: EVRA (RIGA AIRPORT , LV) observed 1220 UTC 17 October 2019
Temperature: 12.0°C (54°F)
Dewpoint: 12.0°C (54°F) [RH = 100%]
Pressure (altimeter): 29.76 inches Hg (1008.0 mb)
Winds: from the SSW (210 degrees) at 5 MPH (4 knots; 2.1 m/s)
Visibility: 5 miles ( 8 km)
Ceiling: 400 feet AGL
Clouds: overcast cloud deck at 400 feet AGL
Weather: -DZ  (light drizzle)

METAR text: EVRA 171150Z 20005KT 4000 -RA BR SCT005 BKN007 OVC011 12/12 Q1008 RERA R18/290195 NOSIG
Conditions at: EVRA (RIGA AIRPORT , LV) observed 1150 UTC 17 October 2019
Temperature: 12.0°C (54°F)
Dewpoint: 12.0°C (54°F) [RH = 100%]
Pressure (altimeter): 29.76 inches Hg (1008.0 mb)
Winds: from the SSW (200 degrees) at 6 MPH (5 knots; 2.6 m/s)
Visibility: 2.49 miles (4.01 km)
Ceiling: 700 feet AGL
Clouds: scattered clouds at 500 feet AGL
broken clouds at 700 feet AGL
overcast cloud deck at 1100 feet AGL
Weather: -RA BR  (light rain, mist)

METAR text: EVRA 171120Z 20007KT 170V230 9999 -RA OVC009 12/12 Q1007 R18/290195 TEMPO 5000
Conditions at: EVRA (RIGA AIRPORT , LV) observed 1120 UTC 17 October 2019
Temperature: 12.0°C (54°F)
Dewpoint: 12.0°C (54°F) [RH = 100%]
Pressure (altimeter): 29.73 inches Hg (1007.0 mb)
Winds: from the SSW (200 degrees) at 8 MPH (7 knots; 3.6 m/s)
Visibility: 6 or more miles (10+ km)
Ceiling: 900 feet AGL
Clouds: overcast cloud deck at 900 feet AGL
Weather: -RA  (light rain)

Forecast for: EVRA (RIGA AIRPORT , LV)
Text: TAF EVRA 182301Z 1900/1924 17006KT 9999 BKN020
Forecast period: 0000 UTC 19 October 2019 to 0000 UTC 20 October 2019
Forecast type: FROM: standard forecast or significant change
Winds: from the S (170 degrees) at 7 MPH (6 knots; 3.1 m/s)
Visibility: 6 or more miles 10+ km)
Ceiling: 2000 feet AGL
Clouds: broken clouds at 2000 feet AGL
Weather: no significant weather forecast for this period
Text: TEMPO 1900/1903 4000 BR
Forecast period: 0000 to 0300 UTC 19 October 2019
Forecast type: TEMPORARY: The following changes expected for less than half the time period
Visibility: 2.49 miles (4.01 km)
Ceiling: unknown
Clouds: missing
Weather: BR  (mist)
Text: TEMPO 1903/1911 BKN005 OVC015
Forecast period: 0300 to 1100 UTC 19 October 2019
Forecast type: TEMPORARY: The following changes expected for less than half the time period
Visibility: missing
Ceiling: 500 feet AGL
Clouds: broken clouds at 500 feet AGL
overcast cloud deck at 1500 feet AGL
Weather: no significant weather forecast for this period
Text: TEMPO 1917/1924 3000 BR
Forecast period: 1700 UTC 19 October 2019 to 0000 UTC 20 October 2019
Forecast type: TEMPORARY: The following changes expected for less than half the time period
Visibility: 1.86 miles (2.99 km)
Ceiling: unknown
Clouds: missing
Weather: BR  (mist)